Time;durP1;ratioP1;P1;durP2;ratioP2;P2;SDS_P1;SDS_P2;PMS_P1;PMS_P2;Temp;Humidity;BMP_temperature;BMP_pressure;BME280_temperature;BME280_humidity;BME280_pressure;Samples;Min_cycle;Max_cycle;Signal;HPM_P1;HPM_P2
2021/09/19 00:02:53;;;;;;;0.52;0.20;;;20.60;57.20;;;;;;6243334;28;20038;-76
2021/09/19 00:05:53;;;;;;;1.67;0.25;;;20.50;57.10;;;;;;6225176;28;20039;-76
2021/09/19 00:08:54;;;;;;;0.82;0.32;;;20.50;57.70;;;;;;6223471;28;20065;-76
2021/09/19 00:11:55;;;;;;;4.72;0.60;;;20.50;57.20;;;;;;6235684;28;20030;-76
2021/09/19 00:14:56;;;;;;;2.30;0.15;;;20.50;57.70;;;;;;6225594;28;20026;-76
2021/09/19 00:17:57;;;;;;;2.67;0.30;;;20.40;57.90;;;;;;6224935;28;20347;-77
2021/09/19 00:20:58;;;;;;;0.20;0.15;;;20.40;58.30;;;;;;6248493;28;20396;-77
2021/09/19 00:23:59;;;;;;;0.52;0.20;;;20.30;58.50;;;;;;6248324;28;20029;-78
2021/09/19 00:27:00;;;;;;;0.90;0.35;;;20.20;59.90;;;;;;6232912;28;20045;-77
2021/09/19 00:30:01;;;;;;;1.05;0.40;;;20.20;60.00;;;;;;6248530;28;20051;-78
2021/09/19 00:33:02;;;;;;;0.85;0.30;;;20.10;61.20;;;;;;6239959;28;20034;-76
2021/09/19 00:36:03;;;;;;;6.00;0.60;;;19.90;62.40;;;;;;6220546;28;20522;-78
2021/09/19 00:39:04;;;;;;;0.60;0.38;;;19.70;63.60;;;;;;6224765;28;20087;-77
2021/09/19 00:42:05;;;;;;;0.45;0.20;;;19.60;64.40;;;;;;6225815;28;20034;-76
2021/09/19 00:45:12;;;;;;;0.82;0.50;;;19.60;64.70;;;;;;6225832;28;20037;-77
2021/09/19 00:48:13;;;;;;;0.40;0.20;;;19.40;65.10;;;;;;6226786;28;20033;-76
2021/09/19 00:51:14;;;;;;;0.15;0.15;;;19.40;65.20;;;;;;6248173;28;20347;-77
2021/09/19 00:54:17;;;;;;;1.40;0.20;;;19.30;65.30;;;;;;6230719;28;20053;-77
2021/09/19 00:57:18;;;;;;;2.03;0.40;;;19.30;65.10;;;;;;6210497;28;20029;-77
2021/09/19 01:00:25;;;;;;;1.50;0.77;;;19.30;65.20;;;;;;6217596;28;20041;-76
2021/09/19 01:03:27;;;;;;;3.73;0.30;;;19.20;65.70;;;;;;6244444;28;20120;-76
2021/09/19 01:06:28;;;;;;;0.30;0.20;;;19.20;66.40;;;;;;6244798;28;20091;-78
2021/09/19 01:09:30;;;;;;;6.03;0.50;;;19.20;67.00;;;;;;6249092;28;20132;-76
2021/09/19 01:12:33;;;;;;;1.23;0.50;;;19.20;67.30;;;;;;6245043;28;20041;-77
2021/09/19 01:15:34;;;;;;;2.50;0.30;;;19.20;67.30;;;;;;6260744;28;20032;-76
2021/09/19 01:18:36;;;;;;;4.32;0.60;;;19.20;67.50;;;;;;6265810;28;20048;-76
2021/09/19 01:21:37;;;;;;;1.00;0.40;;;19.30;67.60;;;;;;6272285;28;20389;-76
2021/09/19 01:24:39;;;;;;;4.43;0.30;;;19.30;67.60;;;;;;6272151;28;20083;-76
2021/09/19 01:27:44;;;;;;;0.63;0.22;;;19.30;67.50;;;;;;6272219;28;20040;-77
2021/09/19 01:30:44;;;;;;;2.60;0.43;;;19.40;67.40;;;;;;6272562;28;20037;-78
2021/09/19 01:33:45;;;;;;;0.52;0.22;;;19.40;67.20;;;;;;6265953;28;20090;-76
2021/09/19 01:36:46;;;;;;;1.20;0.20;;;19.30;67.20;;;;;;6273264;28;20068;-76
2021/09/19 01:39:47;;;;;;;0.45;0.20;;;19.40;67.10;;;;;;6272492;28;20041;-76
2021/09/19 01:42:48;;;;;;;0.25;0.25;;;19.30;67.00;;;;;;6249356;28;20037;-76
2021/09/19 01:45:49;;;;;;;0.55;0.20;;;19.30;67.20;;;;;;6249437;28;20040;-77
2021/09/19 01:48:50;;;;;;;3.22;0.25;;;19.30;68.00;;;;;;6229051;28;20049;-78
2021/09/19 01:51:51;;;;;;;1.52;0.43;;;19.20;68.80;;;;;;6232893;28;20029;-76
2021/09/19 01:54:53;;;;;;;1.27;0.60;;;19.20;68.20;;;;;;6241917;28;20026;-77
2021/09/19 01:57:56;;;;;;;5.30;0.60;;;19.20;68.20;;;;;;6268784;28;20063;-77
2021/09/19 02:01:00;;;;;;;0.90;0.55;;;19.20;68.40;;;;;;6273037;28;20040;-77
2021/09/19 02:04:03;;;;;;;2.00;0.60;;;19.20;68.50;;;;;;6255873;28;20057;-77
2021/09/19 02:07:04;;;;;;;2.47;0.40;;;19.10;68.70;;;;;;6247164;28;20030;-77
2021/09/19 02:10:09;;;;;;;1.55;0.55;;;19.10;68.90;;;;;;6246154;28;20490;-77
2021/09/19 02:13:10;;;;;;;5.68;0.52;;;19.20;69.10;;;;;;6241780;28;20418;-77
2021/09/19 02:16:12;;;;;;;0.50;0.17;;;19.20;69.00;;;;;;6270289;28;20091;-77
2021/09/19 02:19:13;;;;;;;0.93;0.50;;;19.20;69.00;;;;;;6269029;28;20037;-77
2021/09/19 02:22:14;;;;;;;0.82;0.63;;;19.30;69.00;;;;;;6247647;28;20036;-77
2021/09/19 02:25:15;;;;;;;3.03;0.60;;;19.30;69.10;;;;;;6247654;28;20056;-77
2021/09/19 02:28:17;;;;;;;2.22;0.90;;;19.30;69.00;;;;;;6247735;28;20427;-77
2021/09/19 02:31:18;;;;;;;2.05;0.50;;;19.30;68.80;;;;;;6250465;28;20057;-77
2021/09/19 02:34:19;;;;;;;0.25;0.25;;;19.30;69.00;;;;;;6243972;28;20048;-76
2021/09/19 02:37:20;;;;;;;8.25;0.60;;;19.30;69.20;;;;;;6259643;28;20047;-76
2021/09/19 02:40:21;;;;;;;2.72;0.77;;;19.40;69.30;;;;;;6252640;28;20033;-77
2021/09/19 02:43:22;;;;;;;7.93;0.50;;;19.40;69.40;;;;;;6252247;28;20033;-77
2021/09/19 02:46:23;;;;;;;0.73;0.70;;;19.40;69.20;;;;;;6252041;28;20367;-76
2021/09/19 02:49:24;;;;;;;2.67;0.70;;;19.40;69.00;;;;;;6245791;28;20030;-76
2021/09/19 02:52:26;;;;;;;1.35;0.65;;;19.50;69.00;;;;;;6251900;28;20091;-76
2021/09/19 02:55:28;;;;;;;3.55;0.77;;;19.50;68.80;;;;;;6239122;28;20037;-77
2021/09/19 02:58:29;;;;;;;0.55;0.40;;;19.50;68.80;;;;;;6235514;28;20474;-76
2021/09/19 03:01:30;;;;;;;0.47;0.40;;;19.50;68.80;;;;;;6238347;28;20056;-76
2021/09/19 03:04:31;;;;;;;0.20;0.17;;;19.50;68.60;;;;;;6242368;28;20103;-77
2021/09/19 03:07:32;;;;;;;2.45;0.52;;;19.50;68.60;;;;;;6276202;28;20040;-77
2021/09/19 03:10:33;;;;;;;0.13;0.10;;;19.50;68.90;;;;;;6259872;28;20040;-77
2021/09/19 03:13:34;;;;;;;0.52;0.35;;;19.50;68.90;;;;;;6275133;28;20174;-77
2021/09/19 03:16:35;;;;;;;0.82;0.13;;;19.40;68.90;;;;;;6256675;28;20029;-77
2021/09/19 03:19:35;;;;;;;0.75;0.30;;;19.40;68.80;;;;;;6274278;28;20449;-77
2021/09/19 03:22:37;;;;;;;1.42;0.60;;;19.40;68.80;;;;;;6258183;28;20033;-77
2021/09/19 03:25:38;;;;;;;0.38;0.32;;;19.50;68.70;;;;;;6265061;28;20438;-77
2021/09/19 03:28:39;;;;;;;0.40;0.30;;;19.50;68.70;;;;;;6251114;28;20103;-77
2021/09/19 03:31:40;;;;;;;2.33;0.50;;;19.50;68.80;;;;;;6250863;28;20108;-77
2021/09/19 03:34:41;;;;;;;0.30;0.30;;;19.50;68.80;;;;;;6251233;28;20025;-76
2021/09/19 03:37:42;;;;;;;1.30;0.30;;;19.50;68.90;;;;;;6253246;28;20489;-76
2021/09/19 03:40:43;;;;;;;0.30;0.20;;;19.60;68.70;;;;;;6244015;28;20029;-77
2021/09/19 03:43:44;;;;;;;0.45;0.30;;;19.60;68.50;;;;;;6252203;28;20108;-76
2021/09/19 03:46:45;;;;;;;0.82;0.30;;;19.60;68.30;;;;;;6279558;28;20405;-76
2021/09/19 03:49:47;;;;;;;0.45;0.25;;;19.60;68.00;;;;;;6275119;28;20059;-76
2021/09/19 03:52:48;;;;;;;1.23;0.20;;;19.70;67.90;;;;;;6275468;28;20029;-77
2021/09/19 03:55:50;;;;;;;1.48;0.20;;;19.70;67.60;;;;;;6274577;28;20064;-77
2021/09/19 03:58:51;;;;;;;0.13;0.13;;;19.80;67.40;;;;;;6243026;28;20044;-76
2021/09/19 04:01:52;;;;;;;0.20;0.20;;;19.80;67.10;;;;;;6229276;28;20040;-76
2021/09/19 04:04:53;;;;;;;0.32;0.20;;;19.80;66.80;;;;;;6226916;28;20041;-77
2021/09/19 04:07:54;;;;;;;0.82;0.38;;;19.80;66.80;;;;;;6237212;28;20060;-77
2021/09/19 04:10:55;;;;;;;0.20;0.20;;;19.80;66.80;;;;;;6245092;28;20571;-78
2021/09/19 04:13:56;;;;;;;0.30;0.20;;;19.80;66.80;;;;;;6262505;28;20335;-77
2021/09/19 04:16:57;;;;;;;0.65;0.25;;;19.80;66.80;;;;;;6263449;28;20501;-77
2021/09/19 04:19:58;;;;;;;2.90;0.50;;;19.80;66.90;;;;;;6255702;28;20041;-77
2021/09/19 04:22:59;;;;;;;0.45;0.17;;;19.80;67.00;;;;;;6233233;28;20091;-76
2021/09/19 04:26:00;;;;;;;5.93;0.43;;;19.80;67.20;;;;;;6250568;28;20439;-77
2021/09/19 04:29:01;;;;;;;1.45;0.30;;;19.80;67.20;;;;;;6250552;28;20049;-77
2021/09/19 04:32:03;;;;;;;0.43;0.30;;;19.70;67.10;;;;;;6250199;28;20045;-77
2021/09/19 04:35:05;;;;;;;1.10;0.40;;;19.70;67.20;;;;;;6249235;28;20339;-77
2021/09/19 04:38:06;;;;;;;1.98;0.73;;;19.70;68.10;;;;;;6250255;28;20361;-77
2021/09/19 04:41:07;;;;;;;0.50;0.43;;;19.70;67.50;;;;;;6249443;28;20029;-77
2021/09/19 04:44:08;;;;;;;1.13;0.32;;;19.70;67.50;;;;;;6232824;28;20083;-77
2021/09/19 04:47:09;;;;;;;0.38;0.20;;;19.70;67.40;;;;;;6249202;28;20029;-77
2021/09/19 04:50:11;;;;;;;0.20;0.20;;;19.70;67.30;;;;;;6265817;28;20035;-77
2021/09/19 04:53:12;;;;;;;0.32;0.22;;;19.70;67.10;;;;;;6272371;28;20132;-77
2021/09/19 04:56:13;;;;;;;1.65;0.40;;;19.60;67.10;;;;;;6274111;28;20110;-77
2021/09/19 04:59:14;;;;;;;3.83;0.45;;;19.60;67.00;;;;;;6273586;28;20047;-77
2021/09/19 05:02:15;;;;;;;1.30;0.30;;;19.60;67.20;;;;;;6272056;28;20049;-77
2021/09/19 05:05:16;;;;;;;3.70;0.50;;;19.50;67.30;;;;;;6253421;28;20470;-77
2021/09/19 05:08:17;;;;;;;0.98;0.50;;;19.50;67.60;;;;;;6250592;28;20033;-77
2021/09/19 05:11:18;;;;;;;0.77;0.50;;;19.50;67.60;;;;;;6271300;28;20036;-77
2021/09/19 05:14:19;;;;;;;0.52;0.50;;;19.40;67.60;;;;;;6273394;28;20458;-77
2021/09/19 05:17:20;;;;;;;0.70;0.50;;;19.40;68.20;;;;;;6255795;28;20405;-76
2021/09/19 05:20:22;;;;;;;1.70;0.32;;;19.40;67.90;;;;;;6239489;28;20041;-76
2021/09/19 05:23:23;;;;;;;0.40;0.40;;;19.40;67.90;;;;;;6232196;28;20044;-76
2021/09/19 05:26:24;;;;;;;3.50;0.50;;;19.30;67.90;;;;;;6245051;28;20370;-76
2021/09/19 05:29:25;;;;;;;1.70;0.50;;;19.30;68.10;;;;;;6269401;28;20362;-77
2021/09/19 05:32:26;;;;;;;0.52;0.25;;;19.20;68.30;;;;;;6261936;28;20048;-77
2021/09/19 05:35:27;;;;;;;0.50;0.25;;;19.30;68.50;;;;;;6255771;28;20033;-77
2021/09/19 05:38:28;;;;;;;0.30;0.30;;;19.20;68.30;;;;;;6255439;28;20466;-76
2021/09/19 05:41:32;;;;;;;0.73;0.30;;;19.20;68.10;;;;;;6272949;28;20083;-76
2021/09/19 05:44:33;;;;;;;1.90;0.65;;;19.10;68.10;;;;;;6249596;28;20030;-76
2021/09/19 05:47:34;;;;;;;0.85;0.60;;;19.10;68.20;;;;;;6248449;28;20455;-76
2021/09/19 05:50:35;;;;;;;0.55;0.32;;;19.20;68.30;;;;;;6263463;28;20140;-76
2021/09/19 05:53:37;;;;;;;2.05;0.30;;;19.10;69.00;;;;;;6272071;28;20067;-76
2021/09/19 05:56:37;;;;;;;4.85;0.70;;;19.20;68.40;;;;;;6272847;28;20072;-76
2021/09/19 05:59:38;;;;;;;0.30;0.22;;;19.20;68.30;;;;;;6271807;28;20519;-76
2021/09/19 06:02:39;;;;;;;0.68;0.47;;;19.20;68.20;;;;;;6266204;28;20033;-76
2021/09/19 06:05:43;;;;;;;1.48;0.55;;;19.20;68.00;;;;;;6248573;28;20029;-76
2021/09/19 06:08:44;;;;;;;1.77;0.50;;;19.30;67.90;;;;;;6257584;28;20044;-77
2021/09/19 06:11:45;;;;;;;3.50;0.50;;;19.30;67.80;;;;;;6276702;28;20116;-77
2021/09/19 06:14:46;;;;;;;0.63;0.40;;;19.40;67.60;;;;;;6276498;28;20028;-76
2021/09/19 06:17:47;;;;;;;2.08;0.57;;;19.40;67.40;;;;;;6276254;28;20033;-76
2021/09/19 06:20:48;;;;;;;0.17;0.17;;;19.50;67.40;;;;;;6235945;28;20310;-76
2021/09/19 06:23:49;;;;;;;0.90;0.45;;;19.50;67.20;;;;;;6276876;28;20029;-77
2021/09/19 06:26:50;;;;;;;1.00;0.40;;;19.60;67.00;;;;;;6276180;28;20437;-77
2021/09/19 06:29:51;;;;;;;0.60;0.32;;;19.90;67.00;;;;;;6252249;28;20056;-77
2021/09/19 06:32:52;;;;;;;3.50;0.40;;;19.60;66.70;;;;;;6242316;28;20033;-77
2021/09/19 06:35:54;;;;;;;1.75;0.40;;;19.60;66.50;;;;;;6236477;28;20065;-77
2021/09/19 06:38:54;;;;;;;3.53;0.65;;;19.60;66.30;;;;;;6249075;28;20366;-77
2021/09/19 06:41:55;;;;;;;0.88;0.32;;;19.70;66.30;;;;;;6270952;28;20032;-77
2021/09/19 06:44:56;;;;;;;5.00;0.55;;;19.80;66.30;;;;;;6275774;28;20067;-77
2021/09/19 06:47:57;;;;;;;4.00;0.50;;;19.80;66.10;;;;;;6234107;28;20042;-77
2021/09/19 06:50:58;;;;;;;3.17;0.40;;;20.00;65.80;;;;;;6274680;28;20465;-77
2021/09/19 06:54:00;;;;;;;3.70;0.40;;;20.00;65.20;;;;;;6258871;28;20032;-77
2021/09/19 06:57:01;;;;;;;1.45;0.50;;;20.10;64.70;;;;;;6275186;28;20029;-77
2021/09/19 07:00:04;;;;;;;0.43;0.40;;;20.20;64.40;;;;;;6275668;28;20450;-77
2021/09/19 07:03:04;;;;;;;0.63;0.32;;;20.30;64.30;;;;;;6264486;28;20029;-77
2021/09/19 07:06:05;;;;;;;1.45;0.70;;;20.30;63.90;;;;;;6251266;28;20477;-76
2021/09/19 07:09:06;;;;;;;2.95;0.50;;;20.40;63.60;;;;;;6261573;28;20428;-76
2021/09/19 07:12:07;;;;;;;1.05;0.60;;;20.40;63.60;;;;;;6258518;28;20135;-77
2021/09/19 07:15:09;;;;;;;2.05;0.70;;;20.50;63.60;;;;;;6236037;28;20029;-76
2021/09/19 07:18:10;;;;;;;1.88;0.60;;;20.60;63.80;;;;;;6247540;28;20041;-77
2021/09/19 07:21:11;;;;;;;0.75;0.45;;;20.60;63.90;;;;;;6269601;28;20454;-76
2021/09/19 07:24:12;;;;;;;1.48;0.40;;;20.60;63.70;;;;;;6276003;28;20052;-78
2021/09/19 07:27:13;;;;;;;0.77;0.45;;;20.60;63.90;;;;;;6269311;28;20347;-76
2021/09/19 07:30:14;;;;;;;3.40;0.77;;;20.60;64.00;;;;;;6247605;28;20037;-76
2021/09/19 07:33:15;;;;;;;0.70;0.40;;;20.60;64.00;;;;;;6252147;28;20122;-76
2021/09/19 07:36:19;;;;;;;2.05;0.63;;;20.60;64.00;;;;;;6250789;28;20047;-77
2021/09/19 07:39:21;;;;;;;0.30;0.30;;;20.60;64.00;;;;;;6225826;28;20038;-77
2021/09/19 07:42:22;;;;;;;2.28;0.40;;;20.70;63.90;;;;;;6251619;28;20053;-77
2021/09/19 07:45:23;;;;;;;1.77;0.40;;;20.70;63.80;;;;;;6234127;28;20102;-77
2021/09/19 07:48:25;;;;;;;2.53;0.60;;;20.70;63.70;;;;;;6254063;28;20036;-77
2021/09/19 07:51:26;;;;;;;0.90;0.40;;;20.60;63.60;;;;;;6274778;28;20090;-78
2021/09/19 07:54:27;;;;;;;0.30;0.30;;;20.60;63.60;;;;;;6273550;28;20037;-78
2021/09/19 07:57:28;;;;;;;1.92;0.80;;;20.60;63.50;;;;;;6275078;28;20059;-76
2021/09/19 08:00:31;;;;;;;0.30;0.30;;;20.60;63.40;;;;;;6231987;28;20042;-77
2021/09/19 08:03:31;;;;;;;0.75;0.40;;;20.60;63.10;;;;;;6253011;28;20025;-78
2021/09/19 08:06:32;;;;;;;0.88;0.47;;;20.70;62.70;;;;;;6270260;28;20461;-77
2021/09/19 08:09:33;;;;;;;1.35;0.47;;;20.70;62.40;;;;;;6257780;28;20063;-77
2021/09/19 08:12:34;;;;;;;0.70;0.40;;;20.80;62.20;;;;;;6251069;28;20041;-78
2021/09/19 08:15:35;;;;;;;0.68;0.47;;;20.90;62.00;;;;;;6264723;28;20047;-77
2021/09/19 08:18:36;;;;;;;0.40;0.20;;;21.00;61.60;;;;;;6267785;28;20020;-78
2021/09/19 08:21:38;;;;;;;0.77;0.43;;;21.00;61.40;;;;;;6272871;28;20418;-77
2021/09/19 08:24:39;;;;;;;1.27;0.40;;;21.00;61.10;;;;;;6264330;28;20035;-78
2021/09/19 08:27:41;;;;;;;0.88;0.22;;;21.10;60.90;;;;;;6236976;28;20029;-78
2021/09/19 08:30:42;;;;;;;1.05;0.50;;;21.10;60.60;;;;;;6249225;28;20029;-77
2021/09/19 08:33:43;;;;;;;1.55;0.43;;;21.20;60.40;;;;;;6254773;28;20045;-77
2021/09/19 08:36:44;;;;;;;0.68;0.55;;;21.20;60.00;;;;;;6250043;28;20033;-77
2021/09/19 08:39:45;;;;;;;0.82;0.40;;;21.30;59.90;;;;;;6247634;28;20454;-77
2021/09/19 08:42:52;;;;;;;0.35;0.20;;;21.30;59.80;;;;;;6232043;28;20037;-78
2021/09/19 08:45:53;;;;;;;0.77;0.25;;;21.40;59.70;;;;;;6224468;28;20038;-78
2021/09/19 08:48:54;;;;;;;0.70;0.60;;;21.50;59.50;;;;;;6228978;28;20065;-77
2021/09/19 08:51:55;;;;;;;0.82;0.40;;;21.60;59.40;;;;;;6231641;28;20396;-78
2021/09/19 08:54:56;;;;;;;0.63;0.30;;;21.60;59.20;;;;;;6248312;28;20044;-77
2021/09/19 08:57:57;;;;;;;0.55;0.25;;;21.70;58.90;;;;;;6222025;28;20037;-77
2021/09/19 09:00:59;;;;;;;0.15;0.15;;;21.80;58.70;;;;;;6247374;28;20044;-77
2021/09/19 09:04:06;;;;;;;0.93;0.32;;;21.80;58.60;;;;;;6237214;28;20041;-77
2021/09/19 09:07:08;;;;;;;0.20;0.20;;;21.90;58.40;;;;;;6241262;28;20049;-77
2021/09/19 09:10:10;;;;;;;2.05;0.45;;;22.00;58.20;;;;;;6225301;28;20042;-76
2021/09/19 09:13:17;;;;;;;0.30;0.17;;;22.10;57.80;;;;;;6224612;28;20048;-78
2021/09/19 09:16:19;;;;;;;5.63;0.50;;;22.00;57.00;;;;;;6224892;28;20044;-77
2021/09/19 09:19:20;;;;;;;2.17;0.40;;;21.60;57.00;;;;;;6229373;28;20060;-78
2021/09/19 09:22:27;;;;;;;0.17;0.17;;;21.10;57.30;;;;;;6224011;28;20066;-77
2021/09/19 09:25:28;;;;;;;0.95;0.20;;;20.50;57.40;;;;;;6237054;28;20057;-77
2021/09/19 09:28:45;;;;;;;0.20;0.20;;;20.10;57.40;;;;;;6223674;28;20037;-78
2021/09/19 09:31:48;;;;;;;3.00;0.40;;;19.80;58.30;;;;;;6223627;28;20033;-77
2021/09/19 09:35:10;;;;;;;1.30;0.50;;;19.60;58.40;;;;;;6246520;28;20454;-77
2021/09/19 09:38:22;;;;;;;0.40;0.20;;;19.30;59.10;;;;;;6247785;28;20033;-77
2021/09/19 09:41:42;;;;;;;0.68;0.22;;;19.10;59.90;;;;;;6251352;28;20033;-77
2021/09/19 09:44:43;;;;;;;3.45;0.57;;;18.80;60.30;;;;;;6251551;28;20056;-77
2021/09/19 09:47:44;;;;;;;1.13;0.30;;;18.60;60.70;;;;;;6253075;28;20022;-76
2021/09/19 09:50:45;;;;;;;0.52;0.40;;;18.50;60.90;;;;;;6272901;28;20115;-76
2021/09/19 09:53:53;;;;;;;2.10;0.50;;;18.50;60.90;;;;;;6275983;28;20039;-77
2021/09/19 09:56:54;;;;;;;1.35;0.40;;;18.60;61.10;;;;;;6276647;28;20029;-76
2021/09/19 09:59:57;;;;;;;1.48;0.30;;;18.70;61.20;;;;;;6276164;28;20056;-75
2021/09/19 10:02:59;;;;;;;0.70;0.50;;;18.80;61.30;;;;;;6265607;28;20037;-76
2021/09/19 10:06:00;;;;;;;0.32;0.28;;;18.90;61.40;;;;;;6251807;28;20033;-76
2021/09/19 10:09:01;;;;;;;4.50;0.50;;;19.10;61.20;;;;;;6259634;28;20028;-77
2021/09/19 10:12:02;;;;;;;1.67;0.38;;;19.30;60.90;;;;;;6254045;28;20039;-77
2021/09/19 10:15:06;;;;;;;0.35;0.30;;;19.60;60.40;;;;;;6276464;28;20029;-76
2021/09/19 10:18:09;;;;;;;0.30;0.28;;;19.90;59.80;;;;;;6258642;28;20028;-77
2021/09/19 10:21:10;;;;;;;1.02;0.45;;;20.20;59.20;;;;;;6252037;28;20030;-78
2021/09/19 10:24:11;;;;;;;2.30;0.43;;;20.60;58.50;;;;;;6272412;28;20480;-76
2021/09/19 10:27:28;;;;;;;2.75;0.50;;;20.80;57.80;;;;;;6259075;28;20031;-77
2021/09/19 10:30:29;;;;;;;0.52;0.40;;;21.00;57.30;;;;;;6274834;28;20033;-77
2021/09/19 10:33:37;;;;;;;0.80;0.45;;;21.20;56.80;;;;;;6258647;28;20358;-77
2021/09/19 10:36:52;;;;;;;1.30;0.40;;;21.20;56.70;;;;;;6276102;28;20086;-77
2021/09/19 10:40:04;;;;;;;1.02;0.45;;;21.30;56.70;;;;;;6275231;28;20040;-77
2021/09/19 10:43:25;;;;;;;0.70;0.50;;;21.40;56.50;;;;;;6276289;28;20033;-77
2021/09/19 10:46:35;;;;;;;2.92;0.82;;;21.60;56.40;;;;;;6275200;28;20033;-76
2021/09/19 10:49:36;;;;;;;1.52;0.77;;;21.80;56.00;;;;;;6273945;28;20420;-77
2021/09/19 10:52:45;;;;;;;2.38;0.93;;;22.00;55.60;;;;;;6274515;28;20358;-77
2021/09/19 10:55:56;;;;;;;4.10;1.13;;;22.00;55.20;;;;;;6275337;28;20037;-77
2021/09/19 10:58:57;;;;;;;2.03;0.50;;;21.90;55.30;;;;;;6274259;28;20037;-77
2021/09/19 11:02:04;;;;;;;3.67;0.50;;;21.80;55.40;;;;;;6273308;28;20025;-77
2021/09/19 11:05:26;;;;;;;1.52;0.60;;;21.60;55.50;;;;;;6268188;28;20107;-76
2021/09/19 11:08:28;;;;;;;1.15;0.57;;;21.40;55.40;;;;;;6274991;28;20025;-77
2021/09/19 11:11:29;;;;;;;2.35;0.80;;;21.30;55.60;;;;;;6254737;28;20481;-77
2021/09/19 11:14:59;;;;;;;2.33;0.60;;;21.20;56.10;;;;;;6252824;28;20047;-77
2021/09/19 11:18:00;;;;;;;;;;;21.10;56.60;;;;;;6261412;28;20121;-77
2021/09/19 11:21:10;;;;;;;2.90;0.77;;;21.10;57.00;;;;;;6235447;28;19917;-77
2021/09/19 11:24:13;;;;;;;4.80;0.50;;;21.00;57.70;;;;;;6229763;28;20056;-77
2021/09/19 11:27:14;;;;;;;2.40;0.52;;;20.80;58.30;;;;;;6231894;28;20052;-77
2021/09/19 11:30:28;;;;;;;4.45;0.77;;;20.80;58.80;;;;;;6232140;28;20336;-78
2021/09/19 11:33:33;;;;;;;5.30;0.55;;;20.70;59.00;;;;;;6233709;28;20064;-77
2021/09/19 11:36:39;;;;;;;5.97;0.70;;;20.90;59.10;;;;;;6271814;28;20362;-77
2021/09/19 11:39:39;;;;;;;2.28;0.60;;;21.00;59.00;;;;;;6248719;28;20454;-77
2021/09/19 11:42:40;;;;;;;0.57;0.52;;;21.00;58.90;;;;;;6258300;28;20036;-77
2021/09/19 11:45:43;;;;;;;1.10;0.40;;;21.00;58.80;;;;;;6251454;28;20101;-77
2021/09/19 11:48:44;;;;;;;1.38;0.52;;;21.00;58.80;;;;;;6253583;28;20032;-77
2021/09/19 11:51:48;;;;;;;1.60;0.65;;;21.00;58.70;;;;;;6255935;28;20480;-77
2021/09/19 11:54:50;;;;;;;0.70;0.40;;;20.90;58.60;;;;;;6262449;28;20041;-77
2021/09/19 11:57:51;;;;;;;1.52;0.73;;;20.90;58.40;;;;;;6260585;28;20029;-77
2021/09/19 12:00:57;;;;;;;1.77;0.40;;;20.90;58.40;;;;;;6261819;28;20029;-78
2021/09/19 12:04:05;;;;;;;0.38;0.30;;;20.90;57.80;;;;;;6238070;28;20120;-75
2021/09/19 12:07:09;;;;;;;;;;;20.90;57.50;;;;;;6265385;28;20037;-75
2021/09/19 12:10:10;;;;;;;1.85;0.60;;;21.00;57.20;;;;;;6248708;28;19916;-76
2021/09/19 12:13:26;;;;;;;0.52;0.30;;;21.10;56.80;;;;;;6245803;28;20113;-76
2021/09/19 12:16:29;;;;;;;1.30;0.40;;;21.20;56.70;;;;;;6226384;28;20354;-76
2021/09/19 12:19:32;;;;;;;0.75;0.20;;;21.20;56.30;;;;;;6245317;28;20032;-76
2021/09/19 12:22:33;;;;;;;2.03;0.65;;;21.40;55.90;;;;;;6246402;28;20030;-76
2021/09/19 12:25:45;;;;;;;3.50;0.60;;;21.50;55.30;;;;;;6244476;28;20048;-76
2021/09/19 12:28:48;;;;;;;1.52;0.40;;;21.60;54.90;;;;;;6246915;28;20045;-77
2021/09/19 12:31:50;;;;;;;1.38;0.55;;;21.60;54.80;;;;;;6270267;28;20033;-78
2021/09/19 12:35:03;;;;;;;2.08;0.45;;;21.50;54.80;;;;;;6239255;28;20033;-78
2021/09/19 12:38:09;;;;;;;1.42;0.17;;;21.40;54.80;;;;;;6245378;28;20034;-78
2021/09/19 12:41:13;;;;;;;0.93;0.30;;;21.30;54.90;;;;;;6244805;28;20413;-78
2021/09/19 12:44:22;;;;;;;0.47;0.20;;;21.30;55.00;;;;;;6267544;28;20071;-77
2021/09/19 12:47:30;;;;;;;0.75;0.50;;;21.40;54.70;;;;;;6270238;28;20094;-78
2021/09/19 12:50:33;;;;;;;0.43;0.40;;;21.40;54.40;;;;;;6271660;28;20119;-77
2021/09/19 12:53:35;;;;;;;0.45;0.30;;;21.50;54.30;;;;;;6271933;28;20426;-78
2021/09/19 12:56:36;;;;;;;0.65;0.45;;;21.50;54.30;;;;;;6272336;28;20409;-78
2021/09/19 12:59:38;;;;;;;4.38;0.68;;;21.50;54.30;;;;;;6272223;28;20036;-77
2021/09/19 13:02:38;;;;;;;0.47;0.40;;;21.60;54.10;;;;;;6246693;28;20468;-78
2021/09/19 13:05:39;;;;;;;2.90;0.60;;;21.70;54.00;;;;;;6246996;28;20350;-78
2021/09/19 13:08:45;;;;;;;1.35;0.50;;;20.70;53.40;;;;;;6262403;28;20083;-77
2021/09/19 13:11:46;;;;;;;1.83;0.38;;;21.60;54.10;;;;;;6266994;28;20033;-77
2021/09/19 13:14:47;;;;;;;0.85;0.50;;;21.50;54.20;;;;;;6270600;28;20071;-78
2021/09/19 13:17:49;;;;;;;3.00;1.30;;;21.10;54.20;;;;;;6257921;28;20439;-78
2021/09/19 13:20:50;;;;;;;2.65;1.08;;;21.30;54.30;;;;;;6270118;28;20025;-78
2021/09/19 13:23:50;;;;;;;6.20;0.70;;;21.40;54.40;;;;;;6270728;28;20032;-78
2021/09/19 13:26:54;;;;;;;1.63;0.98;;;21.30;54.60;;;;;;6270682;28;20090;-78
2021/09/19 13:29:55;;;;;;;1.67;0.80;;;21.30;54.70;;;;;;6270841;28;20037;-78
2021/09/19 13:32:56;;;;;;;1.20;0.60;;;21.40;54.70;;;;;;6258721;28;20033;-78
2021/09/19 13:35:57;;;;;;;0.63;0.40;;;21.40;54.60;;;;;;6246744;28;20037;-78
2021/09/19 13:39:00;;;;;;;1.27;0.25;;;21.50;54.60;;;;;;6237317;28;20033;-78
2021/09/19 13:42:01;;;;;;;1.00;0.30;;;21.60;54.30;;;;;;6262516;28;20460;-78
2021/09/19 13:45:03;;;;;;;0.77;0.40;;;21.70;53.60;;;;;;6249740;28;20025;-78
2021/09/19 13:48:04;;;;;;;3.30;0.52;;;21.70;53.40;;;;;;6247195;28;20485;-78
2021/09/19 13:51:08;;;;;;;0.43;0.40;;;21.80;53.30;;;;;;6242478;28;20029;-77
2021/09/19 13:54:09;;;;;;;3.25;1.00;;;21.80;53.20;;;;;;6222568;28;20120;-77
2021/09/19 13:57:10;;;;;;;2.10;0.80;;;21.80;53.20;;;;;;6236449;28;20403;-77
2021/09/19 14:00:12;;;;;;;2.00;0.73;;;21.80;53.20;;;;;;6245855;28;20034;-77
2021/09/19 14:03:12;;;;;;;2.65;1.00;;;21.80;53.00;;;;;;6265325;28;20363;-78
2021/09/19 14:06:13;;;;;;;1.35;0.47;;;21.80;53.00;;;;;;6246138;28;20034;-77
2021/09/19 14:09:15;;;;;;;0.73;0.73;;;21.80;53.00;;;;;;6246554;28;20044;-77
2021/09/19 14:12:17;;;;;;;0.73;0.40;;;21.70;53.00;;;;;;6252760;28;20034;-78
2021/09/19 14:15:18;;;;;;;1.92;0.98;;;21.70;53.20;;;;;;6230137;28;20025;-77
2021/09/19 14:18:19;;;;;;;0.70;0.65;;;21.60;53.20;;;;;;6246775;28;20033;-77
2021/09/19 14:21:21;;;;;;;0.95;0.47;;;21.70;53.30;;;;;;6268191;28;20032;-77
2021/09/19 14:24:22;;;;;;;0.30;0.30;;;21.80;53.40;;;;;;6269776;28;20108;-77
2021/09/19 14:27:23;;;;;;;0.60;0.40;;;22.00;53.30;;;;;;6273089;28;20031;-78
2021/09/19 14:30:25;;;;;;;1.13;0.47;;;22.10;53.00;;;;;;6274495;28;20041;-77
2021/09/19 14:33:27;;;;;;;0.50;0.50;;;22.20;53.00;;;;;;6263974;28;20178;-78
2021/09/19 14:36:29;;;;;;;0.52;0.30;;;22.20;53.00;;;;;;6251795;28;20029;-78
2021/09/19 14:39:30;;;;;;;5.15;0.75;;;22.30;53.20;;;;;;6226140;28;20497;-78
2021/09/19 14:42:31;;;;;;;1.40;0.30;;;22.20;53.60;;;;;;6240989;28;20113;-78
2021/09/19 14:45:31;;;;;;;5.97;0.68;;;22.10;54.00;;;;;;6255281;28;20553;-77
2021/09/19 14:48:32;;;;;;;0.55;0.43;;;22.00;54.20;;;;;;6275123;28;20029;-77
2021/09/19 14:51:33;;;;;;;1.73;0.60;;;21.90;54.40;;;;;;6251169;28;20036;-78
2021/09/19 14:54:34;;;;;;;1.02;0.55;;;21.80;54.40;;;;;;6271577;28;20303;-77
2021/09/19 14:57:37;;;;;;;0.40;0.40;;;21.70;54.30;;;;;;6274114;28;20029;-76
2021/09/19 15:00:38;;;;;;;2.55;0.47;;;21.80;54.30;;;;;;6274101;28;20369;-77
2021/09/19 15:03:39;;;;;;;0.65;0.40;;;22.00;54.20;;;;;;6262639;28;20021;-77
2021/09/19 15:06:40;;;;;;;0.73;0.50;;;21.90;54.00;;;;;;6232838;28;20037;-77
2021/09/19 15:09:43;;;;;;;0.98;0.32;;;21.90;53.80;;;;;;6226398;28;20104;-79
2021/09/19 15:12:44;;;;;;;0.38;0.30;;;21.90;53.60;;;;;;6225182;28;20417;-77
2021/09/19 15:15:46;;;;;;;1.25;0.30;;;21.90;53.40;;;;;;6210295;28;20036;-77
2021/09/19 15:18:48;;;;;;;1.27;0.80;;;21.90;53.20;;;;;;6246464;28;20465;-78
2021/09/19 15:21:49;;;;;;;2.83;0.60;;;22.00;52.90;;;;;;6245998;28;20029;-76
2021/09/19 15:24:50;;;;;;;0.40;0.40;;;22.00;52.40;;;;;;6258457;28;20029;-76
2021/09/19 15:27:51;;;;;;;4.22;2.42;;;22.00;52.20;;;;;;6257390;28;20136;-77
2021/09/19 15:30:52;;;;;;;2.00;0.80;;;22.00;52.00;;;;;;6257287;28;20022;-78
2021/09/19 15:33:52;;;;;;;1.33;0.85;;;21.90;52.10;;;;;;6249871;28;20061;-77
2021/09/19 15:36:54;;;;;;;0.88;0.60;;;21.80;52.40;;;;;;6265889;28;20029;-78
2021/09/19 15:40:04;;;;;;;1.27;0.40;;;21.70;52.70;;;;;;6248430;28;20044;-78
2021/09/19 15:43:05;;;;;;;5.85;3.03;;;21.70;52.80;;;;;;6263415;28;20398;-77
2021/09/19 15:46:09;;;;;;;1.50;0.93;;;21.80;52.80;;;;;;6231327;28;20061;-78
2021/09/19 15:49:10;;;;;;;1.90;0.52;;;21.80;52.50;;;;;;6251122;28;20033;-78
2021/09/19 15:52:11;;;;;;;4.60;0.80;;;21.70;52.20;;;;;;6260547;28;20029;-78